Brunei International Airport
WBSB : now visible

Airfield :











YOU CAN JOIN US ON...

 
LOGIN :

Register | Disclaimer

   EN    FR    IT 

 









Legend :    VFR   Marginal VFR   IFR   Intensive IFR   Very Intensive IFR
Visi :
Ceiling :
>= 8 km
>= 3000ft
5 to 8 km
1000 to 3000 ft
1500m to 5 km
500 to 1000 ft
800 to 1500m
200 to 500 ft
< 800m
< 200 ft
Symbols :   Thunderstorms  Fog  Heavy snow  Heavy precipitations  Wind > 20 kt






- Airport Elevation : 73 ft
- IATA code : BWN


WBSB - Brunei International

CURRENT METAR :
  • 181030Z 22003KT 9000 -SHRA FEW004 FEW015CB BKN140 26/26 Q1011 RETS TEMPO 5000 SHRA

EXPIRED METARs :
  • 181000Z 24004KT 9000 -TSRA FEW014 FEW015CB BKN140 27/26 Q1011 TEMPO 5000 TSRA
  • 180930Z 24006KT 9000 -TSRA SCT014 FEW015CB BKN140 27/26 Q1010 TEMPO 5000 -TSRA
  • 180900Z 25008KT 9999 -SHRA FEW015 FEW016CB BKN140 27/25 Q1010 TEMPO 7000 -SHRA
  • 180830Z 26008KT 9999 FEW015 FEW016CB BKN140 27/25 Q1010 NOSIG
  • 180800Z 26008KT 9999 FEW015 FEW016CB BKN140 28/26 Q1010 RESHRA NOSIG

TAF TAF WBSB
Valid from the 18 at 06:00 until the 19 at 12:00 UTC


180500Z 1806/1912 24010KT 9999 SCT015 FEW016CB
TEMPO 1807/1810 6000 TSRA
BECMG 1812/1814 20005KT SCT014 FEW015CB
WBFC FIR / Asia



MET'MAP, your aeronautical weather chart ! - Copyright ORBIFLY December 2007 - Disclaimer

ORBIFLY MET'MAP TEAM :

Programming & Development : Alexandra Zaïnal
Concept & original design : Baudouin d'Aumeries
Assistance for programming : Marc-Olivier Méhu
Technical & hardware support : Manuel Goepfert

Contact : metmap@orbifly.com




SOURCES & CREDITS :

   NOAA       Earth
Advisory